sensor_id;sensor_type;location;lat;lon;timestamp;temperature;humidity
67141;DHT22;54058;52.010;5.546;2023-06-10T00:01:58;22.10;50.50
67141;DHT22;54058;52.010;5.546;2023-06-10T00:04:25;22.00;50.40
67141;DHT22;54058;52.010;5.546;2023-06-10T00:06:51;22.00;52.10
67141;DHT22;54058;52.010;5.546;2023-06-10T00:09:17;22.00;50.30
67141;DHT22;54058;52.010;5.546;2023-06-10T00:11:43;22.00;50.20
67141;DHT22;54058;52.010;5.546;2023-06-10T00:14:10;22.00;50.20
67141;DHT22;54058;52.010;5.546;2023-06-10T00:16:36;21.90;50.20
67141;DHT22;54058;52.010;5.546;2023-06-10T00:19:02;21.90;50.30
67141;DHT22;54058;52.010;5.546;2023-06-10T00:21:32;21.90;50.40
67141;DHT22;54058;52.010;5.546;2023-06-10T00:24:06;21.90;50.40
67141;DHT22;54058;52.010;5.546;2023-06-10T00:26:32;21.90;50.50
67141;DHT22;54058;52.010;5.546;2023-06-10T00:29:01;21.80;51.90
67141;DHT22;54058;52.010;5.546;2023-06-10T00:31:26;21.80;50.40
67141;DHT22;54058;52.010;5.546;2023-06-10T00:33:52;21.70;50.60
67141;DHT22;54058;52.010;5.546;2023-06-10T00:36:18;21.70;50.70
67141;DHT22;54058;52.010;5.546;2023-06-10T00:38:43;21.70;50.70
67141;DHT22;54058;52.010;5.546;2023-06-10T00:41:09;21.70;50.80
67141;DHT22;54058;52.010;5.546;2023-06-10T00:43:35;21.60;50.70
67141;DHT22;54058;52.010;5.546;2023-06-10T00:46:01;21.60;50.70
67141;DHT22;54058;52.010;5.546;2023-06-10T00:48:27;21.60;50.70
67141;DHT22;54058;52.010;5.546;2023-06-10T00:50:53;21.60;50.70
67141;DHT22;54058;52.010;5.546;2023-06-10T00:53:19;21.60;50.60
67141;DHT22;54058;52.010;5.546;2023-06-10T00:55:46;21.60;50.60
67141;DHT22;54058;52.010;5.546;2023-06-10T00:58:13;21.60;51.10
67141;DHT22;54058;52.010;5.546;2023-06-10T01:00:38;21.60;50.50
67141;DHT22;54058;52.010;5.546;2023-06-10T01:03:04;21.60;50.50
67141;DHT22;54058;52.010;5.546;2023-06-10T01:05:34;21.50;50.50
67141;DHT22;54058;52.010;5.546;2023-06-10T01:10:57;21.40;50.60
67141;DHT22;54058;52.010;5.546;2023-06-10T01:13:24;21.30;50.80
67141;DHT22;54058;52.010;5.546;2023-06-10T01:15:57;21.30;50.50
67141;DHT22;54058;52.010;5.546;2023-06-10T01:18:22;21.30;51.20
67141;DHT22;54058;52.010;5.546;2023-06-10T01:20:49;21.30;50.80
67141;DHT22;54058;52.010;5.546;2023-06-10T01:23:15;21.30;50.70
67141;DHT22;54058;52.010;5.546;2023-06-10T01:25:47;21.30;50.50
67141;DHT22;54058;52.010;5.546;2023-06-10T01:33:29;21.20;50.90
67141;DHT22;54058;52.010;5.546;2023-06-10T01:35:57;21.20;50.50
67141;DHT22;54058;52.010;5.546;2023-06-10T01:38:26;21.20;50.40
67141;DHT22;54058;52.010;5.546;2023-06-10T01:40:53;21.20;50.40
67141;DHT22;54058;52.010;5.546;2023-06-10T01:43:21;21.20;50.50
67141;DHT22;54058;52.010;5.546;2023-06-10T01:45:46;21.10;50.50
67141;DHT22;54058;52.010;5.546;2023-06-10T01:48:12;21.10;50.50
67141;DHT22;54058;52.010;5.546;2023-06-10T01:50:38;21.00;50.50
67141;DHT22;54058;52.010;5.546;2023-06-10T01:53:04;21.00;50.60
67141;DHT22;54058;52.010;5.546;2023-06-10T01:55:33;20.90;50.50
67141;DHT22;54058;52.010;5.546;2023-06-10T01:57:59;20.90;50.60
67141;DHT22;54058;52.010;5.546;2023-06-10T02:00:24;20.90;50.60
67141;DHT22;54058;52.010;5.546;2023-06-10T02:02:50;20.80;50.50
67141;DHT22;54058;52.010;5.546;2023-06-10T02:05:16;20.80;50.70
67141;DHT22;54058;52.010;5.546;2023-06-10T02:07:42;20.70;50.90
67141;DHT22;54058;52.010;5.546;2023-06-10T02:10:08;20.70;50.80
67141;DHT22;54058;52.010;5.546;2023-06-10T02:12:33;20.70;50.70
67141;DHT22;54058;52.010;5.546;2023-06-10T02:14:59;20.70;50.80
67141;DHT22;54058;52.010;5.546;2023-06-10T02:17:25;20.70;50.70
67141;DHT22;54058;52.010;5.546;2023-06-10T02:19:51;20.60;50.70
67141;DHT22;54058;52.010;5.546;2023-06-10T02:22:22;20.60;50.80
67141;DHT22;54058;52.010;5.546;2023-06-10T02:24:48;20.60;50.90
67141;DHT22;54058;52.010;5.546;2023-06-10T02:27:15;20.60;50.90
67141;DHT22;54058;52.010;5.546;2023-06-10T02:29:41;20.60;50.90
67141;DHT22;54058;52.010;5.546;2023-06-10T02:32:07;20.50;51.00
67141;DHT22;54058;52.010;5.546;2023-06-10T02:34:33;20.50;51.10
67141;DHT22;54058;52.010;5.546;2023-06-10T02:37:00;20.50;51.10
67141;DHT22;54058;52.010;5.546;2023-06-10T02:39:27;20.50;51.10
67141;DHT22;54058;52.010;5.546;2023-06-10T02:41:53;20.50;51.20
67141;DHT22;54058;52.010;5.546;2023-06-10T02:44:18;20.40;53.10
67141;DHT22;54058;52.010;5.546;2023-06-10T02:46:44;20.30;51.20
67141;DHT22;54058;52.010;5.546;2023-06-10T02:49:11;20.30;51.40
67141;DHT22;54058;52.010;5.546;2023-06-10T02:51:36;20.30;51.40
67141;DHT22;54058;52.010;5.546;2023-06-10T02:54:02;20.30;52.00
67141;DHT22;54058;52.010;5.546;2023-06-10T02:56:28;20.30;51.50
67141;DHT22;54058;52.010;5.546;2023-06-10T02:58:53;20.30;51.50
67141;DHT22;54058;52.010;5.546;2023-06-10T03:01:19;20.20;51.60
67141;DHT22;54058;52.010;5.546;2023-06-10T03:03:45;20.20;51.70
67141;DHT22;54058;52.010;5.546;2023-06-10T03:06:12;20.20;51.90
67141;DHT22;54058;52.010;5.546;2023-06-10T03:08:38;20.20;52.00
67141;DHT22;54058;52.010;5.546;2023-06-10T03:11:04;20.20;52.00
67141;DHT22;54058;52.010;5.546;2023-06-10T03:13:29;20.10;52.00
67141;DHT22;54058;52.010;5.546;2023-06-10T03:15:55;20.10;52.20
67141;DHT22;54058;52.010;5.546;2023-06-10T03:18:21;20.10;52.30
67141;DHT22;54058;52.010;5.546;2023-06-10T03:20:48;20.10;52.30
67141;DHT22;54058;52.010;5.546;2023-06-10T03:23:14;20.10;52.40
67141;DHT22;54058;52.010;5.546;2023-06-10T03:25:40;20.10;52.40
67141;DHT22;54058;52.010;5.546;2023-06-10T03:28:06;20.10;54.10
67141;DHT22;54058;52.010;5.546;2023-06-10T03:30:32;20.00;52.20
67141;DHT22;54058;52.010;5.546;2023-06-10T03:32:57;20.00;52.30
67141;DHT22;54058;52.010;5.546;2023-06-10T03:35:23;20.00;52.50
67141;DHT22;54058;52.010;5.546;2023-06-10T03:37:48;20.00;52.80
67141;DHT22;54058;52.010;5.546;2023-06-10T03:40:14;20.00;52.80
67141;DHT22;54058;52.010;5.546;2023-06-10T03:42:40;20.00;52.80
67141;DHT22;54058;52.010;5.546;2023-06-10T03:45:06;20.00;52.70
67141;DHT22;54058;52.010;5.546;2023-06-10T03:47:36;20.00;52.80
67141;DHT22;54058;52.010;5.546;2023-06-10T03:50:03;20.00;53.00
67141;DHT22;54058;52.010;5.546;2023-06-10T03:52:29;20.00;53.20
67141;DHT22;54058;52.010;5.546;2023-06-10T03:54:55;20.10;53.10
67141;DHT22;54058;52.010;5.546;2023-06-10T03:57:21;20.20;53.20
67141;DHT22;54058;52.010;5.546;2023-06-10T03:59:47;20.50;53.00
67141;DHT22;54058;52.010;5.546;2023-06-10T04:02:12;20.70;52.60
67141;DHT22;54058;52.010;5.546;2023-06-10T04:04:38;20.80;52.50
67141;DHT22;54058;52.010;5.546;2023-06-10T04:07:04;20.70;52.60
67141;DHT22;54058;52.010;5.546;2023-06-10T04:09:30;20.70;53.50
67141;DHT22;54058;52.010;5.546;2023-06-10T04:11:56;21.00;54.50
67141;DHT22;54058;52.010;5.546;2023-06-10T04:14:21;21.20;52.40
67141;DHT22;54058;52.010;5.546;2023-06-10T04:16:47;21.50;52.20
67141;DHT22;54058;52.010;5.546;2023-06-10T04:19:13;21.70;51.90
67141;DHT22;54058;52.010;5.546;2023-06-10T04:21:38;21.70;52.00
67141;DHT22;54058;52.010;5.546;2023-06-10T04:24:04;21.70;52.20
67141;DHT22;54058;52.010;5.546;2023-06-10T04:26:30;21.80;52.20
67141;DHT22;54058;52.010;5.546;2023-06-10T04:28:55;21.70;52.50
67141;DHT22;54058;52.010;5.546;2023-06-10T04:31:21;21.80;52.70
67141;DHT22;54058;52.010;5.546;2023-06-10T04:33:47;22.00;52.60
67141;DHT22;54058;52.010;5.546;2023-06-10T04:36:12;22.10;52.50
67141;DHT22;54058;52.010;5.546;2023-06-10T04:38:39;22.20;52.50
67141;DHT22;54058;52.010;5.546;2023-06-10T04:41:06;22.60;52.30
67141;DHT22;54058;52.010;5.546;2023-06-10T04:43:31;23.00;52.10
67141;DHT22;54058;52.010;5.546;2023-06-10T04:45:57;23.40;51.90
67141;DHT22;54058;52.010;5.546;2023-06-10T04:48:23;23.50;51.80
67141;DHT22;54058;52.010;5.546;2023-06-10T04:50:49;23.40;51.90
67141;DHT22;54058;52.010;5.546;2023-06-10T04:53:16;23.20;52.10
67141;DHT22;54058;52.010;5.546;2023-06-10T04:55:42;22.80;52.50
67141;DHT22;54058;52.010;5.546;2023-06-10T04:58:09;22.50;53.10
67141;DHT22;54058;52.010;5.546;2023-06-10T05:00:35;22.20;53.60
67141;DHT22;54058;52.010;5.546;2023-06-10T05:03:00;22.10;54.00
67141;DHT22;54058;52.010;5.546;2023-06-10T05:05:26;21.80;54.20
67141;DHT22;54058;52.010;5.546;2023-06-10T05:07:51;21.70;54.50
67141;DHT22;54058;52.010;5.546;2023-06-10T05:10:17;21.60;54.60
67141;DHT22;54058;52.010;5.546;2023-06-10T05:12:43;21.60;54.60
67141;DHT22;54058;52.010;5.546;2023-06-10T05:15:09;21.60;54.50
67141;DHT22;54058;52.010;5.546;2023-06-10T05:17:35;21.60;54.40
67141;DHT22;54058;52.010;5.546;2023-06-10T05:20:02;21.70;54.30
67141;DHT22;54058;52.010;5.546;2023-06-10T05:22:27;21.60;54.30
67141;DHT22;54058;52.010;5.546;2023-06-10T05:24:53;21.50;55.00
67141;DHT22;54058;52.010;5.546;2023-06-10T05:27:19;21.50;54.30
67141;DHT22;54058;52.010;5.546;2023-06-10T05:29:44;21.50;54.40
67141;DHT22;54058;52.010;5.546;2023-06-10T05:32:11;21.50;54.40
67141;DHT22;54058;52.010;5.546;2023-06-10T05:34:37;21.50;54.50
67141;DHT22;54058;52.010;5.546;2023-06-10T05:37:03;21.50;54.40
67141;DHT22;54058;52.010;5.546;2023-06-10T05:39:28;21.60;54.30
67141;DHT22;54058;52.010;5.546;2023-06-10T05:41:54;21.50;54.40
67141;DHT22;54058;52.010;5.546;2023-06-10T05:44:20;21.40;54.40
67141;DHT22;54058;52.010;5.546;2023-06-10T05:46:45;21.40;54.50
67141;DHT22;54058;52.010;5.546;2023-06-10T05:49:11;21.40;54.60
67141;DHT22;54058;52.010;5.546;2023-06-10T05:51:37;21.40;54.60
67141;DHT22;54058;52.010;5.546;2023-06-10T05:54:03;21.40;54.60
67141;DHT22;54058;52.010;5.546;2023-06-10T05:56:29;21.40;54.60
67141;DHT22;54058;52.010;5.546;2023-06-10T05:58:54;21.40;54.50
67141;DHT22;54058;52.010;5.546;2023-06-10T06:01:20;21.50;54.60
67141;DHT22;54058;52.010;5.546;2023-06-10T06:03:46;21.60;54.50
67141;DHT22;54058;52.010;5.546;2023-06-10T06:06:11;21.80;54.30
67141;DHT22;54058;52.010;5.546;2023-06-10T06:08:37;21.90;54.20
67141;DHT22;54058;52.010;5.546;2023-06-10T06:11:02;21.90;54.30
67141;DHT22;54058;52.010;5.546;2023-06-10T06:13:28;21.90;54.30
67141;DHT22;54058;52.010;5.546;2023-06-10T06:15:54;21.90;54.20
67141;DHT22;54058;52.010;5.546;2023-06-10T06:18:19;21.90;54.30
67141;DHT22;54058;52.010;5.546;2023-06-10T06:20:45;21.90;54.30
67141;DHT22;54058;52.010;5.546;2023-06-10T06:23:10;22.00;54.40
67141;DHT22;54058;52.010;5.546;2023-06-10T06:25:36;22.20;54.30
67141;DHT22;54058;52.010;5.546;2023-06-10T06:28:07;22.20;54.20
67141;DHT22;54058;52.010;5.546;2023-06-10T06:30:34;22.20;54.20
67141;DHT22;54058;52.010;5.546;2023-06-10T06:33:00;22.20;54.30
67141;DHT22;54058;52.010;5.546;2023-06-10T06:35:27;22.30;54.20
67141;DHT22;54058;52.010;5.546;2023-06-10T06:37:52;22.60;54.50
67141;DHT22;54058;52.010;5.546;2023-06-10T06:40:18;23.40;54.70
67141;DHT22;54058;52.010;5.546;2023-06-10T06:42:44;24.20;54.60
67141;DHT22;54058;52.010;5.546;2023-06-10T06:45:10;24.80;54.40
67141;DHT22;54058;52.010;5.546;2023-06-10T06:47:35;25.30;54.80
67141;DHT22;54058;52.010;5.546;2023-06-10T06:50:01;25.90;54.60
67141;DHT22;54058;52.010;5.546;2023-06-10T06:52:27;26.10;55.00
67141;DHT22;54058;52.010;5.546;2023-06-10T06:54:53;26.50;55.10
67141;DHT22;54058;52.010;5.546;2023-06-10T06:57:19;26.60;55.30
67141;DHT22;54058;52.010;5.546;2023-06-10T06:59:44;27.00;55.70
67141;DHT22;54058;52.010;5.546;2023-06-10T07:02:10;27.40;55.50
67141;DHT22;54058;52.010;5.546;2023-06-10T07:04:36;27.70;55.20
67141;DHT22;54058;52.010;5.546;2023-06-10T07:07:02;28.00;54.80
67141;DHT22;54058;52.010;5.546;2023-06-10T07:09:28;28.10;54.80
67141;DHT22;54058;52.010;5.546;2023-06-10T07:11:54;28.30;54.10
67141;DHT22;54058;52.010;5.546;2023-06-10T07:14:19;28.40;53.60
67141;DHT22;54058;52.010;5.546;2023-06-10T07:16:45;28.50;53.00
67141;DHT22;54058;52.010;5.546;2023-06-10T07:19:11;28.40;47.50
67141;DHT22;54058;52.010;5.546;2023-06-10T07:21:36;28.30;52.60
67141;DHT22;54058;52.010;5.546;2023-06-10T07:24:03;27.80;46.40
67141;DHT22;54058;52.010;5.546;2023-06-10T07:26:29;27.60;52.50
67141;DHT22;54058;52.010;5.546;2023-06-10T07:28:54;27.10;45.50
67141;DHT22;54058;52.010;5.546;2023-06-10T07:31:20;26.90;52.70
67141;DHT22;54058;52.010;5.546;2023-06-10T07:33:46;26.80;52.10
67141;DHT22;54058;52.010;5.546;2023-06-10T07:36:12;26.70;51.60
67141;DHT22;54058;52.010;5.546;2023-06-10T07:38:38;26.60;51.50
67141;DHT22;54058;52.010;5.546;2023-06-10T07:41:03;26.60;51.40
67141;DHT22;54058;52.010;5.546;2023-06-10T07:43:29;26.70;51.30
67141;DHT22;54058;52.010;5.546;2023-06-10T07:45:55;26.80;51.00
67141;DHT22;54058;52.010;5.546;2023-06-10T07:48:20;26.80;50.50
67141;DHT22;54058;52.010;5.546;2023-06-10T07:50:46;26.80;50.10
67141;DHT22;54058;52.010;5.546;2023-06-10T07:53:11;26.70;49.80
67141;DHT22;54058;52.010;5.546;2023-06-10T07:55:37;26.50;49.60
67141;DHT22;54058;52.010;5.546;2023-06-10T07:58:03;26.50;49.80
67141;DHT22;54058;52.010;5.546;2023-06-10T08:00:28;26.40;49.80
67141;DHT22;54058;52.010;5.546;2023-06-10T08:02:54;26.40;49.60
67141;DHT22;54058;52.010;5.546;2023-06-10T08:05:21;26.30;49.20
67141;DHT22;54058;52.010;5.546;2023-06-10T08:07:46;26.40;49.20
67141;DHT22;54058;52.010;5.546;2023-06-10T08:10:12;26.50;49.20
67141;DHT22;54058;52.010;5.546;2023-06-10T08:12:38;26.60;49.20
67141;DHT22;54058;52.010;5.546;2023-06-10T08:15:04;26.70;49.30
67141;DHT22;54058;52.010;5.546;2023-06-10T08:17:30;27.00;49.50
67141;DHT22;54058;52.010;5.546;2023-06-10T08:19:56;27.30;49.70
67141;DHT22;54058;52.010;5.546;2023-06-10T08:22:22;27.50;49.90
67141;DHT22;54058;52.010;5.546;2023-06-10T08:24:48;27.80;50.40
67141;DHT22;54058;52.010;5.546;2023-06-10T08:27:13;27.90;50.70
67141;DHT22;54058;52.010;5.546;2023-06-10T08:29:39;28.30;50.90
67141;DHT22;54058;52.010;5.546;2023-06-10T08:32:05;28.70;50.80
67141;DHT22;54058;52.010;5.546;2023-06-10T08:34:33;28.90;43.40
67141;DHT22;54058;52.010;5.546;2023-06-10T08:36:59;29.20;50.90
67141;DHT22;54058;52.010;5.546;2023-06-10T08:39:25;29.70;50.60
67141;DHT22;54058;52.010;5.546;2023-06-10T08:44:27;30.40;48.20
67141;DHT22;54058;52.010;5.546;2023-06-10T08:46:56;30.40;41.80
67141;DHT22;54058;52.010;5.546;2023-06-10T08:49:26;30.40;49.80
67141;DHT22;54058;52.010;5.546;2023-06-10T08:51:59;30.50;49.20
67141;DHT22;54058;52.010;5.546;2023-06-10T08:54:30;31.00;48.50
67141;DHT22;54058;52.010;5.546;2023-06-10T08:56:59;31.00;47.40
67141;DHT22;54058;52.010;5.546;2023-06-10T08:59:25;30.80;47.70
67141;DHT22;54058;52.010;5.546;2023-06-10T09:01:52;31.00;47.30
67141;DHT22;54058;52.010;5.546;2023-06-10T09:04:19;30.90;47.00
67141;DHT22;54058;52.010;5.546;2023-06-10T09:06:45;30.80;46.40
67141;DHT22;54058;52.010;5.546;2023-06-10T09:09:12;30.90;46.10
67141;DHT22;54058;52.010;5.546;2023-06-10T09:11:40;31.10;45.70
67141;DHT22;54058;52.010;5.546;2023-06-10T09:14:07;31.00;45.00
67141;DHT22;54058;52.010;5.546;2023-06-10T09:16:33;30.80;44.60
67141;DHT22;54058;52.010;5.546;2023-06-10T09:18:59;30.60;44.50
67141;DHT22;54058;52.010;5.546;2023-06-10T09:21:25;30.80;44.20
67141;DHT22;54058;52.010;5.546;2023-06-10T09:23:51;31.20;43.70
67141;DHT22;54058;52.010;5.546;2023-06-10T09:26:17;31.30;43.00
67141;DHT22;54058;52.010;5.546;2023-06-10T09:28:48;31.30;43.10
67141;DHT22;54058;52.010;5.546;2023-06-10T09:31:15;31.60;42.40
67141;DHT22;54058;52.010;5.546;2023-06-10T09:33:45;31.60;42.50
67141;DHT22;54058;52.010;5.546;2023-06-10T09:36:10;31.50;42.20
67141;DHT22;54058;52.010;5.546;2023-06-10T09:38:36;31.30;42.20
67141;DHT22;54058;52.010;5.546;2023-06-10T09:41:03;31.30;41.90
67141;DHT22;54058;52.010;5.546;2023-06-10T09:43:43;31.60;41.60
67141;DHT22;54058;52.010;5.546;2023-06-10T09:46:19;31.90;38.70
67141;DHT22;54058;52.010;5.546;2023-06-10T09:48:46;31.90;39.80
67141;DHT22;54058;52.010;5.546;2023-06-10T09:51:14;31.90;40.70
67141;DHT22;54058;52.010;5.546;2023-06-10T09:53:39;31.50;40.50
67141;DHT22;54058;52.010;5.546;2023-06-10T09:56:05;31.70;40.60
67141;DHT22;54058;52.010;5.546;2023-06-10T09:58:39;31.70;40.30
67141;DHT22;54058;52.010;5.546;2023-06-10T10:01:14;32.10;39.20
67141;DHT22;54058;52.010;5.546;2023-06-10T10:03:50;32.30;38.00
67141;DHT22;54058;52.010;5.546;2023-06-10T10:06:18;32.10;38.50
67141;DHT22;54058;52.010;5.546;2023-06-10T10:08:49;32.00;39.70
67141;DHT22;54058;52.010;5.546;2023-06-10T10:11:17;32.10;39.30
67141;DHT22;54058;52.010;5.546;2023-06-10T10:13:45;32.40;39.20
67141;DHT22;54058;52.010;5.546;2023-06-10T10:16:16;32.60;38.80
67141;DHT22;54058;52.010;5.546;2023-06-10T10:18:54;32.40;38.30
67141;DHT22;54058;52.010;5.546;2023-06-10T10:21:23;32.60;38.20
67141;DHT22;54058;52.010;5.546;2023-06-10T10:23:57;32.60;38.00
67141;DHT22;54058;52.010;5.546;2023-06-10T10:26:27;32.60;37.70
67141;DHT22;54058;52.010;5.546;2023-06-10T10:29:10;32.70;38.10
67141;DHT22;54058;52.010;5.546;2023-06-10T10:31:37;32.70;35.70
67141;DHT22;54058;52.010;5.546;2023-06-10T10:34:12;32.80;37.50
67141;DHT22;54058;52.010;5.546;2023-06-10T10:36:39;32.80;36.80
67141;DHT22;54058;52.010;5.546;2023-06-10T10:39:04;32.80;37.00
67141;DHT22;54058;52.010;5.546;2023-06-10T10:41:31;32.80;34.40
67141;DHT22;54058;52.010;5.546;2023-06-10T10:43:58;32.80;37.10
67141;DHT22;54058;52.010;5.546;2023-06-10T10:46:24;32.70;37.00
67141;DHT22;54058;52.010;5.546;2023-06-10T10:48:51;32.70;37.60
67141;DHT22;54058;52.010;5.546;2023-06-10T10:51:17;32.50;32.60
67141;DHT22;54058;52.010;5.546;2023-06-10T10:53:43;32.30;37.10
67141;DHT22;54058;52.010;5.546;2023-06-10T10:56:15;32.50;34.90
67141;DHT22;54058;52.010;5.546;2023-06-10T10:58:43;32.60;36.40
67141;DHT22;54058;52.010;5.546;2023-06-10T11:01:42;32.60;36.60
67141;DHT22;54058;52.010;5.546;2023-06-10T11:04:12;32.40;33.10
67141;DHT22;54058;52.010;5.546;2023-06-10T11:06:37;32.20;36.40
67141;DHT22;54058;52.010;5.546;2023-06-10T11:11:50;32.30;33.60
67141;DHT22;54058;52.010;5.546;2023-06-10T11:14:26;32.50;36.70
67141;DHT22;54058;52.010;5.546;2023-06-10T11:16:58;32.50;34.70
67141;DHT22;54058;52.010;5.546;2023-06-10T11:19:38;32.40;36.10
67141;DHT22;54058;52.010;5.546;2023-06-10T11:22:07;32.40;33.80
67141;DHT22;54058;52.010;5.546;2023-06-10T11:24:33;32.20;35.60
67141;DHT22;54058;52.010;5.546;2023-06-10T11:27:41;32.10;35.70
67141;DHT22;54058;52.010;5.546;2023-06-10T11:30:18;31.90;34.10
67141;DHT22;54058;52.010;5.546;2023-06-10T11:32:45;32.00;34.50
67141;DHT22;54058;52.010;5.546;2023-06-10T11:35:15;32.10;35.70
67141;DHT22;54058;52.010;5.546;2023-06-10T11:37:41;32.10;35.40
67141;DHT22;54058;52.010;5.546;2023-06-10T11:40:07;32.10;35.50
67141;DHT22;54058;52.010;5.546;2023-06-10T11:42:32;32.10;34.00
67141;DHT22;54058;52.010;5.546;2023-06-10T11:44:58;32.10;33.40
67141;DHT22;54058;52.010;5.546;2023-06-10T11:47:25;32.30;35.70
67141;DHT22;54058;52.010;5.546;2023-06-10T11:49:56;32.20;35.70
67141;DHT22;54058;52.010;5.546;2023-06-10T11:52:31;32.30;35.00
67141;DHT22;54058;52.010;5.546;2023-06-10T11:54:59;32.30;33.70
67141;DHT22;54058;52.010;5.546;2023-06-10T11:57:24;32.20;35.10
67141;DHT22;54058;52.010;5.546;2023-06-10T11:59:50;32.10;31.90
67141;DHT22;54058;52.010;5.546;2023-06-10T12:02:16;32.00;31.50
67141;DHT22;54058;52.010;5.546;2023-06-10T12:04:42;31.70;31.90
67141;DHT22;54058;52.010;5.546;2023-06-10T12:07:07;31.60;35.80
67141;DHT22;54058;52.010;5.546;2023-06-10T12:09:33;31.80;34.00
67141;DHT22;54058;52.010;5.546;2023-06-10T12:12:03;31.90;35.80
67141;DHT22;54058;52.010;5.546;2023-06-10T12:20:04;32.00;32.00
67141;DHT22;54058;52.010;5.546;2023-06-10T12:22:43;31.80;34.40
67141;DHT22;54058;52.010;5.546;2023-06-10T12:25:10;31.60;32.80
67141;DHT22;54058;52.010;5.546;2023-06-10T12:27:37;31.60;34.70
67141;DHT22;54058;52.010;5.546;2023-06-10T12:30:05;31.60;35.40
67141;DHT22;54058;52.010;5.546;2023-06-10T12:32:39;31.50;34.50
67141;DHT22;54058;52.010;5.546;2023-06-10T12:35:06;31.40;33.00
67141;DHT22;54058;52.010;5.546;2023-06-10T12:37:32;31.30;34.80
67141;DHT22;54058;52.010;5.546;2023-06-10T12:40:03;31.40;34.70
67141;DHT22;54058;52.010;5.546;2023-06-10T12:42:32;31.40;34.60
67141;DHT22;54058;52.010;5.546;2023-06-10T12:44:59;31.50;34.60
67141;DHT22;54058;52.010;5.546;2023-06-10T12:47:36;31.50;34.20
67141;DHT22;54058;52.010;5.546;2023-06-10T12:50:04;31.50;34.50
67141;DHT22;54058;52.010;5.546;2023-06-10T12:52:30;31.60;34.50
67141;DHT22;54058;52.010;5.546;2023-06-10T12:54:56;31.60;34.40
67141;DHT22;54058;52.010;5.546;2023-06-10T12:57:22;31.70;34.30
67141;DHT22;54058;52.010;5.546;2023-06-10T12:59:48;31.70;34.20
67141;DHT22;54058;52.010;5.546;2023-06-10T13:02:22;31.70;34.40
67141;DHT22;54058;52.010;5.546;2023-06-10T13:04:50;31.80;34.60
67141;DHT22;54058;52.010;5.546;2023-06-10T13:07:17;31.80;34.30
67141;DHT22;54058;52.010;5.546;2023-06-10T13:09:43;31.80;34.50
67141;DHT22;54058;52.010;5.546;2023-06-10T13:12:09;31.80;34.20
67141;DHT22;54058;52.010;5.546;2023-06-10T13:14:36;31.70;34.10
67141;DHT22;54058;52.010;5.546;2023-06-10T13:17:03;31.70;34.30
67141;DHT22;54058;52.010;5.546;2023-06-10T13:19:31;31.70;34.40
67141;DHT22;54058;52.010;5.546;2023-06-10T13:21:57;31.70;34.10
67141;DHT22;54058;52.010;5.546;2023-06-10T13:24:23;31.70;34.40
67141;DHT22;54058;52.010;5.546;2023-06-10T13:26:49;31.70;34.40
67141;DHT22;54058;52.010;5.546;2023-06-10T13:29:14;31.70;34.40
67141;DHT22;54058;52.010;5.546;2023-06-10T13:31:40;31.60;34.30
67141;DHT22;54058;52.010;5.546;2023-06-10T13:34:06;31.60;34.30
67141;DHT22;54058;52.010;5.546;2023-06-10T13:36:32;31.60;34.50
67141;DHT22;54058;52.010;5.546;2023-06-10T13:38:58;31.70;34.60
67141;DHT22;54058;52.010;5.546;2023-06-10T13:41:23;31.70;34.50
67141;DHT22;54058;52.010;5.546;2023-06-10T13:43:50;31.70;34.40
67141;DHT22;54058;52.010;5.546;2023-06-10T13:46:15;31.60;34.20
67141;DHT22;54058;52.010;5.546;2023-06-10T13:48:41;31.60;34.10
67141;DHT22;54058;52.010;5.546;2023-06-10T13:51:07;31.50;33.30
67141;DHT22;54058;52.010;5.546;2023-06-10T13:53:34;31.50;34.50
67141;DHT22;54058;52.010;5.546;2023-06-10T13:56:00;31.50;34.20
67141;DHT22;54058;52.010;5.546;2023-06-10T13:58:26;31.50;34.20
67141;DHT22;54058;52.010;5.546;2023-06-10T14:00:51;31.40;34.20
67141;DHT22;54058;52.010;5.546;2023-06-10T14:03:17;31.30;34.10
67141;DHT22;54058;52.010;5.546;2023-06-10T14:05:43;31.30;34.30
67141;DHT22;54058;52.010;5.546;2023-06-10T14:08:08;31.10;34.10
67141;DHT22;54058;52.010;5.546;2023-06-10T14:10:34;31.20;34.70
67141;DHT22;54058;52.010;5.546;2023-06-10T14:13:00;31.30;34.80
67141;DHT22;54058;52.010;5.546;2023-06-10T14:15:26;31.40;34.40
67141;DHT22;54058;52.010;5.546;2023-06-10T14:17:51;31.40;34.20
67141;DHT22;54058;52.010;5.546;2023-06-10T14:20:17;31.40;34.20
67141;DHT22;54058;52.010;5.546;2023-06-10T14:22:43;31.40;34.20
67141;DHT22;54058;52.010;5.546;2023-06-10T14:25:08;31.50;33.00
67141;DHT22;54058;52.010;5.546;2023-06-10T14:27:34;31.50;34.70
67141;DHT22;54058;52.010;5.546;2023-06-10T14:30:00;31.50;34.10
67141;DHT22;54058;52.010;5.546;2023-06-10T14:32:26;31.50;33.90
67141;DHT22;54058;52.010;5.546;2023-06-10T14:34:51;31.50;33.90
67141;DHT22;54058;52.010;5.546;2023-06-10T14:37:17;31.40;33.80
67141;DHT22;54058;52.010;5.546;2023-06-10T14:39:43;31.40;33.90
67141;DHT22;54058;52.010;5.546;2023-06-10T14:42:08;31.30;34.00
67141;DHT22;54058;52.010;5.546;2023-06-10T14:44:34;31.30;34.00
67141;DHT22;54058;52.010;5.546;2023-06-10T14:47:00;31.30;33.90
67141;DHT22;54058;52.010;5.546;2023-06-10T14:49:25;31.30;33.90
67141;DHT22;54058;52.010;5.546;2023-06-10T14:51:51;31.20;33.90
67141;DHT22;54058;52.010;5.546;2023-06-10T14:54:17;31.20;33.90
67141;DHT22;54058;52.010;5.546;2023-06-10T14:56:42;31.20;33.70
67141;DHT22;54058;52.010;5.546;2023-06-10T14:59:08;31.20;33.90
67141;DHT22;54058;52.010;5.546;2023-06-10T15:01:34;31.10;33.90
67141;DHT22;54058;52.010;5.546;2023-06-10T15:03:59;31.10;34.10
67141;DHT22;54058;52.010;5.546;2023-06-10T15:06:25;31.10;33.90
67141;DHT22;54058;52.010;5.546;2023-06-10T15:08:51;31.00;33.90
67141;DHT22;54058;52.010;5.546;2023-06-10T15:11:17;31.00;33.80
67141;DHT22;54058;52.010;5.546;2023-06-10T15:13:42;31.00;33.90
67141;DHT22;54058;52.010;5.546;2023-06-10T15:16:08;31.00;34.00
67141;DHT22;54058;52.010;5.546;2023-06-10T15:18:34;30.90;34.20
67141;DHT22;54058;52.010;5.546;2023-06-10T15:21:00;30.90;34.00
67141;DHT22;54058;52.010;5.546;2023-06-10T15:23:25;30.90;34.00
67141;DHT22;54058;52.010;5.546;2023-06-10T15:25:51;30.90;33.80
67141;DHT22;54058;52.010;5.546;2023-06-10T15:28:17;30.90;33.80
67141;DHT22;54058;52.010;5.546;2023-06-10T15:30:43;30.80;33.50
67141;DHT22;54058;52.010;5.546;2023-06-10T15:33:08;30.80;33.70
67141;DHT22;54058;52.010;5.546;2023-06-10T15:35:34;30.70;33.70
67141;DHT22;54058;52.010;5.546;2023-06-10T15:38:00;30.80;33.70
67141;DHT22;54058;52.010;5.546;2023-06-10T15:40:26;30.70;33.60
67141;DHT22;54058;52.010;5.546;2023-06-10T15:42:52;30.80;33.80
67141;DHT22;54058;52.010;5.546;2023-06-10T15:45:17;30.70;33.70
67141;DHT22;54058;52.010;5.546;2023-06-10T15:47:43;30.60;33.90